sensor_id;sensor_type;location;lat;lon;timestamp;pressure;altitude;pressure_sealevel;temperature;humidity
66668;BME280;57205;51.438;-2.006;2024-02-26T00:00:31;99116.28;;;4.41;100.00
66668;BME280;57205;51.438;-2.006;2024-02-26T00:02:57;99107.81;;;4.39;100.00
66668;BME280;57205;51.438;-2.006;2024-02-26T00:05:22;99126.34;;;4.39;100.00
66668;BME280;57205;51.438;-2.006;2024-02-26T00:07:48;99122.88;;;4.39;100.00
66668;BME280;57205;51.438;-2.006;2024-02-26T00:10:14;99130.81;;;4.39;100.00
66668;BME280;57205;51.438;-2.006;2024-02-26T00:12:40;99139.84;;;4.43;100.00
66668;BME280;57205;51.438;-2.006;2024-02-26T00:15:09;99139.56;;;4.39;100.00
66668;BME280;57205;51.438;-2.006;2024-02-26T00:17:34;99159.19;;;4.38;100.00
66668;BME280;57205;51.438;-2.006;2024-02-26T00:20:01;99154.94;;;4.37;100.00
66668;BME280;57205;51.438;-2.006;2024-02-26T00:22:30;99157.56;;;4.37;100.00
66668;BME280;57205;51.438;-2.006;2024-02-26T00:24:55;99170.28;;;4.35;100.00
66668;BME280;57205;51.438;-2.006;2024-02-26T00:27:21;99171.34;;;4.34;100.00
66668;BME280;57205;51.438;-2.006;2024-02-26T00:29:46;99170.81;;;4.32;100.00
66668;BME280;57205;51.438;-2.006;2024-02-26T00:32:11;99188.78;;;4.30;100.00
66668;BME280;57205;51.438;-2.006;2024-02-26T00:34:37;99188.78;;;4.30;100.00
66668;BME280;57205;51.438;-2.006;2024-02-26T00:37:02;99178.19;;;4.30;100.00
66668;BME280;57205;51.438;-2.006;2024-02-26T00:39:28;99190.38;;;4.31;100.00
66668;BME280;57205;51.438;-2.006;2024-02-26T00:41:54;99201.22;;;4.30;100.00
66668;BME280;57205;51.438;-2.006;2024-02-26T00:44:19;99192.47;;;4.29;100.00
66668;BME280;57205;51.438;-2.006;2024-02-26T00:46:45;99219.50;;;4.31;100.00
66668;BME280;57205;51.438;-2.006;2024-02-26T00:49:10;99217.91;;;4.30;100.00
66668;BME280;57205;51.438;-2.006;2024-02-26T00:51:36;99229.31;;;4.31;100.00
66668;BME280;57205;51.438;-2.006;2024-02-26T00:54:02;99225.06;;;4.30;100.00
66668;BME280;57205;51.438;-2.006;2024-02-26T00:56:27;99227.69;;;4.30;100.00
66668;BME280;57205;51.438;-2.006;2024-02-26T00:58:53;99230.34;;;4.30;100.00
66668;BME280;57205;51.438;-2.006;2024-02-26T01:01:20;99244.66;;;4.29;100.00
66668;BME280;57205;51.438;-2.006;2024-02-26T01:03:45;99245.44;;;4.29;100.00
66668;BME280;57205;51.438;-2.006;2024-02-26T01:06:11;99249.13;;;4.28;100.00
66668;BME280;57205;51.438;-2.006;2024-02-26T01:08:36;99256.53;;;4.26;100.00
66668;BME280;57205;51.438;-2.006;2024-02-26T01:11:02;99259.19;;;4.26;100.00
66668;BME280;57205;51.438;-2.006;2024-02-26T01:13:28;99257.06;;;4.23;100.00
66668;BME280;57205;51.438;-2.006;2024-02-26T01:15:53;99287.75;;;4.24;100.00
66668;BME280;57205;51.438;-2.006;2024-02-26T01:18:19;99268.19;;;4.25;100.00
66668;BME280;57205;51.438;-2.006;2024-02-26T01:20:45;99274.53;;;4.24;100.00
66668;BME280;57205;51.438;-2.006;2024-02-26T01:23:10;99270.31;;;4.23;100.00
66668;BME280;57205;51.438;-2.006;2024-02-26T01:25:35;99279.28;;;4.22;100.00
66668;BME280;57205;51.438;-2.006;2024-02-26T01:28:02;99289.59;;;4.24;100.00
66668;BME280;57205;51.438;-2.006;2024-02-26T01:30:27;99282.72;;;4.23;100.00
66668;BME280;57205;51.438;-2.006;2024-02-26T01:32:53;99295.97;;;4.23;100.00
66668;BME280;57205;51.438;-2.006;2024-02-26T01:35:18;99303.66;;;4.24;100.00
66668;BME280;57205;51.438;-2.006;2024-02-26T01:37:44;99316.41;;;4.27;100.00
66668;BME280;57205;51.438;-2.006;2024-02-26T01:40:10;99309.50;;;4.26;100.00
66668;BME280;57205;51.438;-2.006;2024-02-26T01:42:38;99310.28;;;4.27;100.00
66668;BME280;57205;51.438;-2.006;2024-02-26T01:45:04;99336.78;;;4.27;100.00
66668;BME280;57205;51.438;-2.006;2024-02-26T01:47:33;99338.34;;;4.28;100.00
66668;BME280;57205;51.438;-2.006;2024-02-26T01:49:59;99335.44;;;4.29;100.00
66668;BME280;57205;51.438;-2.006;2024-02-26T01:52:24;99335.75;;;4.33;100.00
66668;BME280;57205;51.438;-2.006;2024-02-26T01:54:50;99351.38;;;4.34;100.00
66668;BME280;57205;51.438;-2.006;2024-02-26T01:57:16;99351.94;;;4.36;100.00
66668;BME280;57205;51.438;-2.006;2024-02-26T01:59:42;99358.25;;;4.35;100.00
66668;BME280;57205;51.438;-2.006;2024-02-26T02:02:08;99366.50;;;4.39;100.00
66668;BME280;57205;51.438;-2.006;2024-02-26T02:04:36;99378.97;;;4.38;100.00
66668;BME280;57205;51.438;-2.006;2024-02-26T02:07:02;99385.31;;;4.42;100.00
66668;BME280;57205;51.438;-2.006;2024-02-26T02:09:28;99393.81;;;4.44;100.00
66668;BME280;57205;51.438;-2.006;2024-02-26T02:11:54;99401.22;;;4.42;100.00
66668;BME280;57205;51.438;-2.006;2024-02-26T02:14:19;99395.91;;;4.42;100.00
66668;BME280;57205;51.438;-2.006;2024-02-26T02:16:46;99410.75;;;4.43;100.00
66668;BME280;57205;51.438;-2.006;2024-02-26T02:19:13;99399.38;;;4.43;100.00
66668;BME280;57205;51.438;-2.006;2024-02-26T02:21:39;99408.38;;;4.42;100.00
66668;BME280;57205;51.438;-2.006;2024-02-26T02:24:04;99415.00;;;4.44;100.00
66668;BME280;57205;51.438;-2.006;2024-02-26T02:26:30;99421.34;;;4.43;100.00
66668;BME280;57205;51.438;-2.006;2024-02-26T02:28:56;99419.75;;;4.42;100.00
66668;BME280;57205;51.438;-2.006;2024-02-26T02:31:22;99426.38;;;4.40;100.00
66668;BME280;57205;51.438;-2.006;2024-02-26T02:33:48;99431.41;;;4.41;100.00
66668;BME280;57205;51.438;-2.006;2024-02-26T02:36:13;99437.75;;;4.40;100.00
66668;BME280;57205;51.438;-2.006;2024-02-26T02:38:48;99437.22;;;4.38;100.00
66668;BME280;57205;51.438;-2.006;2024-02-26T02:41:15;99447.81;;;4.38;100.00
66668;BME280;57205;51.438;-2.006;2024-02-26T02:43:40;99433.47;;;4.34;100.00
66668;BME280;57205;51.438;-2.006;2024-02-26T02:46:06;99450.66;;;4.32;100.00
66668;BME280;57205;51.438;-2.006;2024-02-26T02:48:31;99460.44;;;4.31;100.00
66668;BME280;57205;51.438;-2.006;2024-02-26T02:50:56;99461.75;;;4.29;100.00
66668;BME280;57205;51.438;-2.006;2024-02-26T02:53:22;99464.13;;;4.30;100.00
66668;BME280;57205;51.438;-2.006;2024-02-26T02:55:47;99474.72;;;4.30;100.00
66668;BME280;57205;51.438;-2.006;2024-02-26T02:58:13;99495.09;;;4.30;100.00
66668;BME280;57205;51.438;-2.006;2024-02-26T03:00:38;99495.91;;;4.30;100.00
66668;BME280;57205;51.438;-2.006;2024-02-26T03:03:04;99494.31;;;4.29;100.00
66668;BME280;57205;51.438;-2.006;2024-02-26T03:05:29;99501.72;;;4.27;100.00
66668;BME280;57205;51.438;-2.006;2024-02-26T03:07:55;99498.00;;;4.28;100.00
66668;BME280;57205;51.438;-2.006;2024-02-26T03:10:20;99506.50;;;4.30;100.00
66668;BME280;57205;51.438;-2.006;2024-02-26T03:12:46;99530.59;;;4.29;100.00
66668;BME280;57205;51.438;-2.006;2024-02-26T03:15:11;99520.78;;;4.29;100.00
66668;BME280;57205;51.438;-2.006;2024-02-26T03:17:37;99511.50;;;4.27;100.00
66668;BME280;57205;51.438;-2.006;2024-02-26T03:20:02;99534.81;;;4.30;100.00
66668;BME280;57205;51.438;-2.006;2024-02-26T03:22:30;99536.91;;;4.28;100.00
66668;BME280;57205;51.438;-2.006;2024-02-26T03:24:55;99535.06;;;4.28;100.00
66668;BME280;57205;51.438;-2.006;2024-02-26T03:27:21;99549.13;;;4.29;100.00
66668;BME280;57205;51.438;-2.006;2024-02-26T03:29:46;99550.16;;;4.28;100.00
66668;BME280;57205;51.438;-2.006;2024-02-26T03:32:13;99558.09;;;4.28;100.00
66668;BME280;57205;51.438;-2.006;2024-02-26T03:34:38;99562.84;;;4.26;100.00
66668;BME280;57205;51.438;-2.006;2024-02-26T03:37:06;99571.84;;;4.25;100.00
66668;BME280;57205;51.438;-2.006;2024-02-26T03:39:34;99586.66;;;4.26;100.00
66668;BME280;57205;51.438;-2.006;2024-02-26T03:42:00;99572.66;;;4.25;100.00
66668;BME280;57205;51.438;-2.006;2024-02-26T03:44:25;99608.91;;;4.25;100.00
66668;BME280;57205;51.438;-2.006;2024-02-26T03:46:51;99599.59;;;4.22;100.00
66668;BME280;57205;51.438;-2.006;2024-02-26T03:49:16;99604.13;;;4.22;100.00
66668;BME280;57205;51.438;-2.006;2024-02-26T03:51:43;99611.50;;;4.20;100.00
66668;BME280;57205;51.438;-2.006;2024-02-26T03:54:10;99627.38;;;4.20;100.00
66668;BME280;57205;51.438;-2.006;2024-02-26T03:56:35;99618.63;;;4.19;100.00
66668;BME280;57205;51.438;-2.006;2024-02-26T03:59:00;99637.16;;;4.19;100.00
66668;BME280;57205;51.438;-2.006;2024-02-26T04:01:27;99623.38;;;4.17;100.00
66668;BME280;57205;51.438;-2.006;2024-02-26T04:03:54;99634.22;;;4.16;100.00
66668;BME280;57205;51.438;-2.006;2024-02-26T04:06:19;99631.56;;;4.16;100.00
66668;BME280;57205;51.438;-2.006;2024-02-26T04:08:46;99653.56;;;4.16;100.00
66668;BME280;57205;51.438;-2.006;2024-02-26T04:11:12;99650.09;;;4.16;100.00
66668;BME280;57205;51.438;-2.006;2024-02-26T04:13:38;99653.78;;;4.15;100.00
66668;BME280;57205;51.438;-2.006;2024-02-26T04:16:04;99662.78;;;4.14;100.00
66668;BME280;57205;51.438;-2.006;2024-02-26T04:18:31;99680.75;;;4.12;100.00
66668;BME280;57205;51.438;-2.006;2024-02-26T04:20:56;99670.72;;;4.14;100.00
66668;BME280;57205;51.438;-2.006;2024-02-26T04:23:22;99681.00;;;4.10;100.00
66668;BME280;57205;51.438;-2.006;2024-02-26T04:25:47;99686.84;;;4.12;100.00
66668;BME280;57205;51.438;-2.006;2024-02-26T04:28:13;99681.00;;;4.10;100.00
66668;BME280;57205;51.438;-2.006;2024-02-26T04:30:38;99702.19;;;4.10;100.00
66668;BME280;57205;51.438;-2.006;2024-02-26T04:33:04;99705.84;;;4.09;100.00
66668;BME280;57205;51.438;-2.006;2024-02-26T04:35:30;99711.16;;;4.09;100.00
66668;BME280;57205;51.438;-2.006;2024-02-26T04:37:55;99709.06;;;4.11;100.00
66668;BME280;57205;51.438;-2.006;2024-02-26T04:40:21;99720.16;;;4.08;100.00
66668;BME280;57205;51.438;-2.006;2024-02-26T04:42:47;99715.09;;;4.07;100.00
66668;BME280;57205;51.438;-2.006;2024-02-26T04:45:12;99727.78;;;4.05;100.00
66668;BME280;57205;51.438;-2.006;2024-02-26T04:47:38;99731.13;;;4.00;100.00
66668;BME280;57205;51.438;-2.006;2024-02-26T04:50:04;99738.84;;;4.02;100.00
66668;BME280;57205;51.438;-2.006;2024-02-26T04:52:30;99758.16;;;4.02;100.00
66668;BME280;57205;51.438;-2.006;2024-02-26T04:54:55;99769.88;;;4.06;100.00
66668;BME280;57205;51.438;-2.006;2024-02-26T04:57:21;99772.28;;;4.08;100.00
66668;BME280;57205;51.438;-2.006;2024-02-26T04:59:47;99780.78;;;4.10;100.00
66668;BME280;57205;51.438;-2.006;2024-02-26T05:02:13;99784.47;;;4.09;100.00
66668;BME280;57205;51.438;-2.006;2024-02-26T05:04:38;99806.94;;;4.06;100.00
66668;BME280;57205;51.438;-2.006;2024-02-26T05:07:04;99797.16;;;4.07;100.00
66668;BME280;57205;51.438;-2.006;2024-02-26T05:09:29;99800.81;;;4.06;100.00
66668;BME280;57205;51.438;-2.006;2024-02-26T05:11:55;99833.41;;;4.06;100.00
66668;BME280;57205;51.438;-2.006;2024-02-26T05:14:20;99813.81;;;4.07;100.00
66668;BME280;57205;51.438;-2.006;2024-02-26T05:16:46;99828.34;;;4.05;100.00
66668;BME280;57205;51.438;-2.006;2024-02-26T05:19:12;99841.59;;;4.05;100.00
66668;BME280;57205;51.438;-2.006;2024-02-26T05:21:37;99839.25;;;4.08;100.00
66668;BME280;57205;51.438;-2.006;2024-02-26T05:24:03;99848.00;;;4.09;100.00
66668;BME280;57205;51.438;-2.006;2024-02-26T05:26:28;99856.72;;;4.09;100.00
66668;BME280;57205;51.438;-2.006;2024-02-26T05:28:54;99842.47;;;4.10;100.00
66668;BME280;57205;51.438;-2.006;2024-02-26T05:31:25;99876.88;;;4.10;100.00
66668;BME280;57205;51.438;-2.006;2024-02-26T05:33:50;99872.06;;;4.07;100.00
66668;BME280;57205;51.438;-2.006;2024-02-26T05:36:22;99874.69;;;4.07;100.00
66668;BME280;57205;51.438;-2.006;2024-02-26T05:38:48;99887.28;;;4.00;100.00
66668;BME280;57205;51.438;-2.006;2024-02-26T05:41:15;99894.97;;;4.02;100.00
66668;BME280;57205;51.438;-2.006;2024-02-26T05:43:41;99905.34;;;4.03;100.00
66668;BME280;57205;51.438;-2.006;2024-02-26T05:46:07;99916.97;;;4.02;100.00
66668;BME280;57205;51.438;-2.006;2024-02-26T05:48:32;99891.06;;;4.04;100.00
66668;BME280;57205;51.438;-2.006;2024-02-26T05:50:58;99908.31;;;4.07;100.00
66668;BME280;57205;51.438;-2.006;2024-02-26T05:53:23;99912.31;;;4.09;100.00
66668;BME280;57205;51.438;-2.006;2024-02-26T05:55:48;99893.53;;;4.11;100.00
66668;BME280;57205;51.438;-2.006;2024-02-26T05:58:14;99961.59;;;4.10;100.00
66668;BME280;57205;51.438;-2.006;2024-02-26T06:00:39;99917.63;;;4.09;100.00
66668;BME280;57205;51.438;-2.006;2024-02-26T06:03:05;99925.00;;;4.07;100.00
66668;BME280;57205;51.438;-2.006;2024-02-26T06:05:30;99937.28;;;4.13;100.00
66668;BME280;57205;51.438;-2.006;2024-02-26T06:07:55;99946.03;;;4.14;100.00
66668;BME280;57205;51.438;-2.006;2024-02-26T06:10:21;99970.66;;;4.14;100.00
66668;BME280;57205;51.438;-2.006;2024-02-26T06:12:47;99944.19;;;4.14;100.00
66668;BME280;57205;51.438;-2.006;2024-02-26T06:15:12;99969.03;;;4.13;100.00
66668;BME280;57205;51.438;-2.006;2024-02-26T06:17:38;99972.00;;;4.17;100.00
66668;BME280;57205;51.438;-2.006;2024-02-26T06:20:04;99984.69;;;4.15;100.00
66668;BME280;57205;51.438;-2.006;2024-02-26T06:22:31;99999.22;;;4.12;100.00
66668;BME280;57205;51.438;-2.006;2024-02-26T06:24:57;99992.88;;;4.13;100.00
66668;BME280;57205;51.438;-2.006;2024-02-26T06:27:24;99983.91;;;4.14;100.00
66668;BME280;57205;51.438;-2.006;2024-02-26T06:29:49;99995.84;;;4.17;100.00
66668;BME280;57205;51.438;-2.006;2024-02-26T06:32:15;100003.78;;;4.17;100.00
66668;BME280;57205;51.438;-2.006;2024-02-26T06:34:40;100018.31;;;4.14;100.00
66668;BME280;57205;51.438;-2.006;2024-02-26T06:37:07;100024.72;;;4.18;100.00
66668;BME280;57205;51.438;-2.006;2024-02-26T06:39:33;100024.28;;;4.21;100.00
66668;BME280;57205;51.438;-2.006;2024-02-26T06:41:59;100041.88;;;4.27;100.00
66668;BME280;57205;51.438;-2.006;2024-02-26T06:44:27;100029.97;;;4.30;100.00
66668;BME280;57205;51.438;-2.006;2024-02-26T06:47:00;100044.34;;;4.34;100.00
66668;BME280;57205;51.438;-2.006;2024-02-26T06:49:26;100057.69;;;4.39;100.00
66668;BME280;57205;51.438;-2.006;2024-02-26T06:51:51;100075.75;;;4.42;100.00
66668;BME280;57205;51.438;-2.006;2024-02-26T06:54:17;100067.09;;;4.46;100.00
66668;BME280;57205;51.438;-2.006;2024-02-26T06:56:43;100073.44;;;4.45;100.00
66668;BME280;57205;51.438;-2.006;2024-02-26T06:59:08;100085.88;;;4.45;100.00
66668;BME280;57205;51.438;-2.006;2024-02-26T07:01:34;100094.06;;;4.43;100.00
66668;BME280;57205;51.438;-2.006;2024-02-26T07:03:59;100123.44;;;4.42;100.00
66668;BME280;57205;51.438;-2.006;2024-02-26T07:06:26;100103.03;;;4.42;100.00
66668;BME280;57205;51.438;-2.006;2024-02-26T07:08:52;100099.28;;;4.38;100.00
66668;BME280;57205;51.438;-2.006;2024-02-26T07:11:17;100110.22;;;4.30;100.00
66668;BME280;57205;51.438;-2.006;2024-02-26T07:13:47;100119.19;;;4.29;100.00
66668;BME280;57205;51.438;-2.006;2024-02-26T07:16:15;100134.06;;;4.30;100.00
66668;BME280;57205;51.438;-2.006;2024-02-26T07:18:40;100129.78;;;4.29;100.00
66668;BME280;57205;51.438;-2.006;2024-02-26T07:21:06;100130.59;;;4.30;100.00
66668;BME280;57205;51.438;-2.006;2024-02-26T07:23:31;100140.16;;;4.31;100.00
66668;BME280;57205;51.438;-2.006;2024-02-26T07:25:57;100164.22;;;4.29;100.00
66668;BME280;57205;51.438;-2.006;2024-02-26T07:28:23;100147.31;;;4.30;100.00
66668;BME280;57205;51.438;-2.006;2024-02-26T07:30:49;100162.25;;;4.36;100.00
66668;BME280;57205;51.438;-2.006;2024-02-26T07:33:14;100154.31;;;4.36;100.00
66668;BME280;57205;51.438;-2.006;2024-02-26T07:35:40;100164.19;;;4.41;100.00
66668;BME280;57205;51.438;-2.006;2024-02-26T07:38:05;100195.19;;;4.40;100.00
66668;BME280;57205;51.438;-2.006;2024-02-26T07:40:31;100175.94;;;4.45;100.00
66668;BME280;57205;51.438;-2.006;2024-02-26T07:42:56;100176.75;;;4.45;100.00
66668;BME280;57205;51.438;-2.006;2024-02-26T07:45:22;100198.75;;;4.46;100.00
66668;BME280;57205;51.438;-2.006;2024-02-26T07:47:47;100201.16;;;4.47;100.00
66668;BME280;57205;51.438;-2.006;2024-02-26T07:50:13;100195.63;;;4.49;100.00
66668;BME280;57205;51.438;-2.006;2024-02-26T07:52:39;100207.03;;;4.49;100.00
66668;BME280;57205;51.438;-2.006;2024-02-26T07:55:05;100214.63;;;4.46;100.00
66668;BME280;57205;51.438;-2.006;2024-02-26T07:57:32;100217.06;;;4.47;100.00
66668;BME280;57205;51.438;-2.006;2024-02-26T07:59:59;100218.41;;;4.50;100.00
66668;BME280;57205;51.438;-2.006;2024-02-26T08:02:25;100224.28;;;4.52;100.00
66668;BME280;57205;51.438;-2.006;2024-02-26T08:04:50;100224.06;;;4.53;100.00
66668;BME280;57205;51.438;-2.006;2024-02-26T08:07:16;100232.00;;;4.53;100.00
66668;BME280;57205;51.438;-2.006;2024-02-26T08:09:42;100233.94;;;4.58;100.00
66668;BME280;57205;51.438;-2.006;2024-02-26T08:12:07;100226.78;;;4.70;100.00
66668;BME280;57205;51.438;-2.006;2024-02-26T08:14:34;100243.00;;;4.73;100.00
66668;BME280;57205;51.438;-2.006;2024-02-26T08:16:59;100240.38;;;4.73;100.00
66668;BME280;57205;51.438;-2.006;2024-02-26T08:19:26;100246.59;;;4.67;100.00
66668;BME280;57205;51.438;-2.006;2024-02-26T08:21:53;100260.78;;;4.61;100.00
66668;BME280;57205;51.438;-2.006;2024-02-26T08:24:19;100267.81;;;4.56;100.00
66668;BME280;57205;51.438;-2.006;2024-02-26T08:26:45;100292.38;;;4.51;100.00
66668;BME280;57205;51.438;-2.006;2024-02-26T08:29:11;100289.47;;;4.53;100.00
66668;BME280;57205;51.438;-2.006;2024-02-26T08:31:37;100295.34;;;4.55;100.00
66668;BME280;57205;51.438;-2.006;2024-02-26T08:34:03;100297.28;;;4.59;100.00
66668;BME280;57205;51.438;-2.006;2024-02-26T08:36:31;100311.22;;;4.66;100.00
66668;BME280;57205;51.438;-2.006;2024-02-26T08:38:57;100321.81;;;4.66;100.00
66668;BME280;57205;51.438;-2.006;2024-02-26T08:41:22;100319.28;;;4.71;100.00
66668;BME280;57205;51.438;-2.006;2024-02-26T08:43:48;100326.44;;;4.71;100.00
66668;BME280;57205;51.438;-2.006;2024-02-26T08:46:13;100317.66;;;4.70;100.00
66668;BME280;57205;51.438;-2.006;2024-02-26T08:48:40;100312.69;;;4.74;100.00
66668;BME280;57205;51.438;-2.006;2024-02-26T08:51:08;100306.94;;;4.77;100.00
66668;BME280;57205;51.438;-2.006;2024-02-26T08:53:35;100338.16;;;4.86;100.00
66668;BME280;57205;51.438;-2.006;2024-02-26T08:56:00;100321.44;;;4.97;100.00
66668;BME280;57205;51.438;-2.006;2024-02-26T08:58:27;100320.69;;;5.14;100.00
66668;BME280;57205;51.438;-2.006;2024-02-26T09:00:53;100339.63;;;5.34;100.00
66668;BME280;57205;51.438;-2.006;2024-02-26T09:03:19;100337.91;;;5.56;100.00
66668;BME280;57205;51.438;-2.006;2024-02-26T09:05:44;100340.75;;;5.94;100.00
66668;BME280;57205;51.438;-2.006;2024-02-26T09:08:10;100368.59;;;6.08;100.00
66668;BME280;57205;51.438;-2.006;2024-02-26T09:10:35;100331.72;;;6.28;100.00
66668;BME280;57205;51.438;-2.006;2024-02-26T09:13:01;100344.44;;;6.59;100.00
66668;BME280;57205;51.438;-2.006;2024-02-26T09:15:26;100345.44;;;6.75;100.00
66668;BME280;57205;51.438;-2.006;2024-02-26T09:17:51;100378.09;;;6.70;100.00
66668;BME280;57205;51.438;-2.006;2024-02-26T09:20:17;100362.03;;;6.65;100.00
66668;BME280;57205;51.438;-2.006;2024-02-26T09:22:46;100364.31;;;6.57;100.00
66668;BME280;57205;51.438;-2.006;2024-02-26T09:25:14;100362.56;;;6.46;100.00
66668;BME280;57205;51.438;-2.006;2024-02-26T09:27:42;100377.31;;;6.37;100.00
66668;BME280;57205;51.438;-2.006;2024-02-26T09:30:11;100383.75;;;6.24;100.00
66668;BME280;57205;51.438;-2.006;2024-02-26T09:32:37;100374.56;;;6.15;100.00
66668;BME280;57205;51.438;-2.006;2024-02-26T09:35:03;100377.56;;;6.19;100.00
66668;BME280;57205;51.438;-2.006;2024-02-26T09:37:28;100379.22;;;6.25;100.00
66668;BME280;57205;51.438;-2.006;2024-02-26T09:39:54;100399.53;;;6.31;100.00
66668;BME280;57205;51.438;-2.006;2024-02-26T09:42:19;100391.94;;;6.23;100.00
66668;BME280;57205;51.438;-2.006;2024-02-26T09:44:45;100400.03;;;6.28;100.00
66668;BME280;57205;51.438;-2.006;2024-02-26T09:47:14;100395.66;;;6.22;100.00
66668;BME280;57205;51.438;-2.006;2024-02-26T09:49:45;100417.25;;;6.25;100.00
66668;BME280;57205;51.438;-2.006;2024-02-26T09:52:12;100427.53;;;6.71;100.00
66668;BME280;57205;51.438;-2.006;2024-02-26T09:54:38;100404.47;;;6.93;100.00
66668;BME280;57205;51.438;-2.006;2024-02-26T09:57:05;100415.72;;;7.01;100.00
66668;BME280;57205;51.438;-2.006;2024-02-26T09:59:39;100414.28;;;6.93;100.00
66668;BME280;57205;51.438;-2.006;2024-02-26T10:02:11;100429.53;;;6.98;100.00
66668;BME280;57205;51.438;-2.006;2024-02-26T10:04:37;100420.13;;;7.12;100.00
66668;BME280;57205;51.438;-2.006;2024-02-26T10:07:07;100421.09;;;7.22;100.00
66668;BME280;57205;51.438;-2.006;2024-02-26T10:09:35;100441.69;;;7.32;100.00
66668;BME280;57205;51.438;-2.006;2024-02-26T10:12:02;100437.56;;;7.41;100.00
66668;BME280;57205;51.438;-2.006;2024-02-26T10:14:28;100448.56;;;7.49;100.00
66668;BME280;57205;51.438;-2.006;2024-02-26T10:16:54;100444.34;;;7.32;100.00
66668;BME280;57205;51.438;-2.006;2024-02-26T10:19:29;100444.06;;;7.12;100.00
66668;BME280;57205;51.438;-2.006;2024-02-26T10:21:59;100456.13;;;6.98;100.00
66668;BME280;57205;51.438;-2.006;2024-02-26T10:24:26;100472.13;;;7.03;100.00
66668;BME280;57205;51.438;-2.006;2024-02-26T10:26:52;100469.00;;;7.06;100.00
66668;BME280;57205;51.438;-2.006;2024-02-26T10:29:20;100473.78;;;7.04;100.00
66668;BME280;57205;51.438;-2.006;2024-02-26T10:31:47;100459.59;;;6.98;100.00
66668;BME280;57205;51.438;-2.006;2024-02-26T10:34:16;100467.41;;;6.88;100.00
66668;BME280;57205;51.438;-2.006;2024-02-26T10:36:43;100488.63;;;6.83;100.00
66668;BME280;57205;51.438;-2.006;2024-02-26T10:39:11;100490.38;;;6.77;100.00
66668;BME280;57205;51.438;-2.006;2024-02-26T10:41:37;100495.53;;;6.84;100.00
66668;BME280;57205;51.438;-2.006;2024-02-26T10:44:04;100490.47;;;6.82;100.00
66668;BME280;57205;51.438;-2.006;2024-02-26T10:46:29;100484.81;;;6.96;100.00
66668;BME280;57205;51.438;-2.006;2024-02-26T10:48:55;100502.75;;;7.22;100.00
66668;BME280;57205;51.438;-2.006;2024-02-26T10:51:29;100512.03;;;7.57;100.00
66668;BME280;57205;51.438;-2.006;2024-02-26T10:53:56;100517.44;;;7.84;100.00
66668;BME280;57205;51.438;-2.006;2024-02-26T10:56:27;100521.66;;;7.80;100.00
66668;BME280;57205;51.438;-2.006;2024-02-26T10:58:54;100523.59;;;7.68;100.00
66668;BME280;57205;51.438;-2.006;2024-02-26T11:01:22;100533.69;;;7.44;100.00
66668;BME280;57205;51.438;-2.006;2024-02-26T11:03:51;100541.91;;;7.43;100.00
66668;BME280;57205;51.438;-2.006;2024-02-26T11:06:18;100535.31;;;7.29;100.00
66668;BME280;57205;51.438;-2.006;2024-02-26T11:08:48;100534.75;;;7.27;100.00
66668;BME280;57205;51.438;-2.006;2024-02-26T11:11:14;100545.72;;;7.30;100.00
66668;BME280;57205;51.438;-2.006;2024-02-26T11:13:47;100552.91;;;7.30;100.00
66668;BME280;57205;51.438;-2.006;2024-02-26T11:16:21;100554.75;;;7.29;100.00
66668;BME280;57205;51.438;-2.006;2024-02-26T11:18:51;100548.06;;;7.27;100.00
66668;BME280;57205;51.438;-2.006;2024-02-26T11:21:17;100549.28;;;7.19;100.00
66668;BME280;57205;51.438;-2.006;2024-02-26T11:23:53;100555.81;;;7.28;100.00
66668;BME280;57205;51.438;-2.006;2024-02-26T11:26:20;100559.28;;;7.67;100.00
66668;BME280;57205;51.438;-2.006;2024-02-26T11:28:47;100569.28;;;7.98;100.00
66668;BME280;57205;51.438;-2.006;2024-02-26T11:31:13;100574.09;;;8.01;100.00
66668;BME280;57205;51.438;-2.006;2024-02-26T11:33:39;100592.50;;;7.81;100.00
66668;BME280;57205;51.438;-2.006;2024-02-26T11:36:12;100591.56;;;7.70;100.00
66668;BME280;57205;51.438;-2.006;2024-02-26T11:38:39;100599.50;;;7.65;100.00
66668;BME280;57205;51.438;-2.006;2024-02-26T11:41:05;100586.28;;;7.54;100.00
66668;BME280;57205;51.438;-2.006;2024-02-26T11:43:57;100597.00;;;7.42;100.00
66668;BME280;57205;51.438;-2.006;2024-02-26T11:46:30;100591.59;;;7.54;100.00
66668;BME280;57205;51.438;-2.006;2024-02-26T11:49:01;100579.63;;;7.56;100.00
66668;BME280;57205;51.438;-2.006;2024-02-26T11:51:32;100595.69;;;7.61;100.00
66668;BME280;57205;51.438;-2.006;2024-02-26T11:53:59;100605.75;;;7.76;100.00
66668;BME280;57205;51.438;-2.006;2024-02-26T11:56:24;100589.47;;;7.94;100.00
66668;BME280;57205;51.438;-2.006;2024-02-26T11:59:04;100612.56;;;7.88;100.00
66668;BME280;57205;51.438;-2.006;2024-02-26T12:01:40;100594.13;;;7.82;100.00
66668;BME280;57205;51.438;-2.006;2024-02-26T12:06:42;100596.56;;;7.67;100.00
66668;BME280;57205;51.438;-2.006;2024-02-26T12:09:11;100614.47;;;7.71;100.00
66668;BME280;57205;51.438;-2.006;2024-02-26T12:11:40;100610.91;;;7.66;100.00
66668;BME280;57205;51.438;-2.006;2024-02-26T12:14:08;100606.41;;;7.66;100.00
66668;BME280;57205;51.438;-2.006;2024-02-26T12:16:38;100610.66;;;7.84;100.00
66668;BME280;57205;51.438;-2.006;2024-02-26T12:19:05;100602.28;;;7.97;100.00
66668;BME280;57205;51.438;-2.006;2024-02-26T12:21:34;100612.56;;;8.10;100.00
66668;BME280;57205;51.438;-2.006;2024-02-26T12:24:10;100620.78;;;8.25;100.00
66668;BME280;57205;51.438;-2.006;2024-02-26T12:26:36;100621.09;;;8.29;100.00
66668;BME280;57205;51.438;-2.006;2024-02-26T12:29:02;100616.44;;;8.19;100.00
66668;BME280;57205;51.438;-2.006;2024-02-26T12:31:27;100615.88;;;8.17;100.00
66668;BME280;57205;51.438;-2.006;2024-02-26T12:33:55;100611.84;;;8.15;100.00
66668;BME280;57205;51.438;-2.006;2024-02-26T12:36:24;100653.41;;;8.16;100.00
66668;BME280;57205;51.438;-2.006;2024-02-26T12:41:31;100644.25;;;8.07;100.00
66668;BME280;57205;51.438;-2.006;2024-02-26T12:44:08;100653.06;;;8.07;100.00
66668;BME280;57205;51.438;-2.006;2024-02-26T12:46:34;100664.41;;;8.19;100.00